• Join FlightAware (Why Join?)
  • Login
  • US Flag 
02:04PM EDT


 

Airport Tracker/Info


-or-


 

Live Flight TrackerFlight Track Log ✈ N960DL ✈ 29-Apr-2013 ✈ KATL - KIAH

Flight Track Log - Related Links

Times and Time Zones

All times are in EDT time to prevent confusion due to time zone crossing. See the N960DL flight status page for this flight to view local times or setup timezone preferences in your user account.

Time Position Orientation Groundspeed Altitude Reporting Facility
EDT Latitude Longitude Course Direction KTS MPH feet Rate Location/Type
11:54AM 33.6494 -84.4806 246° West 445 512 2,500  Level Atlanta Center
11:55AM 33.6658 -84.5556 285° West 328 377 4,700 2,220 Climbing Atlanta Center
11:56AM 33.6800 -84.6356 282° West 286 329 7,000 2,460 Climbing Atlanta Center
11:57AM 33.8001 -84.4862 270° West  Level FlightAware Approximate
11:57AM 33.6942 -84.7231 281° West 279 321 9,700  Level Atlanta Center
11:58AM 33.7762 -84.6117 234° Southwest  Level FlightAware Approximate
11:58AM 33.6833 -84.8153 262° West 287 330 10,600  Level Atlanta Center
11:59AM 33.7100 -84.7192 234° Southwest  Level FlightAware Approximate
11:59AM 33.6367 -84.9194 242° Southwest 330 380 12,000  Level Atlanta Center
12:00PM 33.6458 -84.8280 246° West  Level FlightAware Approximate
12:00PM 33.5878 -85.0364 243° Southwest 376 433 14,600  Level Atlanta Center
12:01PM 33.5367 -85.1653 245° Southwest 390 449 16,700 1,980 Climbing Atlanta Center
12:02PM 33.5019 -85.2944 252° West 410 472 18,600 1,740 Climbing Atlanta Center
12:03PM 33.4817 -85.4336 260° West 422 486 20,200 1,620 Climbing Atlanta Center
12:04PM 33.4611 -85.5775 260° West 434 499 21,900 1,560 Climbing Atlanta Center
12:05PM 33.4383 -85.7217 259° West 440 506 23,400 1,380 Climbing Atlanta Center
12:06PM 33.4158 -85.8481 258° West 448 516 24,700 1,260 Climbing Atlanta Center
12:07PM 33.3906 -85.9994 259° West 448 516 26,000 1,440 Climbing Atlanta Center
12:08PM 33.3669 -86.1506 259° West 459 528 27,600 1,500 Climbing Atlanta Center
12:09PM 33.3436 -86.2992 259° West 465 535 29,000 1,320 Climbing Atlanta Center
12:10PM 33.3111 -86.4625 257° West 465 535 30,300 1,080 Climbing Atlanta Center
12:11PM 33.2919 -86.5911 260° West 465 535 31,200 960 Climbing Atlanta Center
12:12PM 33.2703 -86.7319 260° West 455 524 32,300 900 Climbing Atlanta Center
12:13PM 33.2483 -86.8731 260° West 441 507 33,000 840 Climbing Atlanta Center
12:14PM 33.2056 -87.0056 243° Southwest 431 496 34,000 480 Climbing Atlanta Center
12:15PM 33.1870 -87.0017 243° Southwest  Level FlightAware Approximate
12:15PM 33.1417 -87.1375 240° Southwest 423 487 34,000  Level Atlanta Center
12:16PM 33.0842 -87.2667 242° Southwest 429 494 34,000  Level Atlanta Center
12:17PM 33.0264 -87.3908 241° Southwest 429 494 34,000  Level Atlanta Center
12:19PM 32.9217 -87.6250 242° Southwest 440 506 34,000  Level Memphis Center
12:20PM 32.8639 -87.7531 242° Southwest 440 506 34,000  Level Memphis Center
12:21PM 32.8058 -87.8808 242° Southwest 440 506 34,000  Level Memphis Center
12:22PM 32.7581 -87.9956 244° Southwest 440 506 34,000  Level Memphis Center
12:23PM 32.6997 -88.1231 241° Southwest 440 506 34,000  Level Memphis Center
12:24PM 32.6394 -88.2506 241° Southwest 440 506 34,000  Level Memphis Center
12:25PM 32.5808 -88.3750 241° Southwest 440 506 34,000  Level Memphis Center
12:26PM 32.5181 -88.5022 240° Southwest 440 506 34,000  Level Memphis Center
12:27PM 32.4594 -88.6314 242° Southwest 440 506 34,000  Level Memphis Center
12:28PM 32.4006 -88.7581 241° Southwest 440 506 34,000  Level Memphis Center
12:29PM 32.3522 -88.8942 247° West 440 506 34,000  Level Memphis Center
12:30PM 32.3142 -89.0300 252° West 445 512 34,000  Level Memphis Center
12:31PM 32.2758 -89.1681 252° West 445 512 34,000  Level Memphis Center
12:32PM 32.2333 -89.3061 250° West 445 512 34,000  Level Memphis Center
12:33PM 32.1947 -89.4392 251° West 445 512 34,000  Level Memphis Center
12:34PM 32.1539 -89.5769 251° West 445 512 34,000  Level Memphis Center
12:35PM 32.1150 -89.7122 251° West 445 512 34,000 -60 Level Memphis Center
12:36PM 32.0739 -89.8497 251° West 445 512 33,900 -960 Descending Memphis Center
12:37PM 32.0325 -89.9872 250° West 445 512 32,100 -1,740 Descending Memphis Center
12:38PM 31.9933 -90.1222 251° West 445 512 30,500 -1,080 Descending Memphis Center
12:39PM 31.9517 -90.2642 251° West 450 518 30,000 -180 Descending Memphis Center
12:41PM 31.8656 -90.5453 250° West 455 524 30,000  Level Houston Center
12:42PM 31.8244 -90.6803 250° West 446 513 30,000  Level Houston Center
12:43PM 31.7850 -90.8150 251° West 441 507 30,000  Level Houston Center
12:44PM 31.7431 -90.9531 250° West 450 518 30,000  Level Houston Center
12:45PM 31.7003 -91.0911 250° West 453 521 30,000  Level Houston Center
12:46PM 31.6481 -91.2597 250° West 452 520 30,000  Level Houston Center
12:47PM 31.6033 -91.3972 249° West 453 521 30,000  Level Houston Center
12:48PM 31.5472 -91.5281 243° Southwest 450 518 30,000  Level Houston Center
12:49PM 31.4881 -91.6550 241° Southwest 444 511 30,000  Level Houston Center
12:51PM 31.4308 -91.7808 242° Southwest 439 505 30,000  Level Houston Center
12:52PM 31.3733 -91.9064 242° Southwest 438 504 30,000  Level Houston Center
12:53PM 31.3108 -92.0417 242° Southwest 439 505 30,000  Level Houston Center
12:54PM 31.2522 -92.1669 241° Southwest 440 506 30,000  Level Houston Center
12:55PM 31.1944 -92.2928 242° Southwest 441 507 30,000  Level Houston Center
12:56PM 31.1217 -92.4428 240° Southwest 443 510 30,000  Level Houston Center
12:57PM 31.0631 -92.5692 242° Southwest 444 511 30,000  Level Houston Center
12:58PM 31.0039 -92.6936 241° Southwest 444 511 30,000  Level Houston Center
12:59PM 30.9444 -92.8197 241° Southwest 442 509 30,000  Level Houston Center
01:00PM 30.8847 -92.9469 241° Southwest 446 513 30,000  Level Houston Center
01:01PM 30.8125 -93.0994 241° Southwest 451 519 30,000  Level Houston Center
01:02PM 30.7522 -93.2264 241° Southwest 451 519 30,000  Level Houston Center
01:03PM 30.6917 -93.3525 241° Southwest 451 519 30,000  Level Houston Center
01:04PM 30.6319 -93.4778 241° Southwest 451 519 30,000 -960 Level Houston Center
01:05PM 30.5711 -93.6017 240° Southwest 449 517 28,100 -2,640 Descending Houston Center
01:06PM 30.4997 -93.7503 241° Southwest 449 517 24,600 -3,180 Descending Houston Center
01:07PM 30.4419 -93.8692 241° Southwest 432 497 21,500 -3,120 Descending Houston Center
01:08PM 30.4131 -93.9289 241° Southwest 425 489 20,100 -2,820 Descending Houston Center
01:08PM 30.3844 -93.9878 241° Southwest 427 491 18,600 -2,580 Descending Houston Center
01:09PM 30.3469 -94.0639 240° Southwest 424 488 17,200 -2,280 Descending Houston Center
01:09PM 30.3278 -94.1042 241° Southwest 417 480 16,300 -2,280 Descending Houston Center
01:10PM 30.2858 -94.1883 240° Southwest 394 453 14,700 -2,760 Descending Houston Center
01:10PM 30.2644 -94.2339 241° Southwest 388 447 13,500 -2,460 Descending Houston Center
01:11PM 30.2317 -94.2994 240° Southwest 378 435 12,200 -1,560 Descending Houston Center
01:11PM 30.2125 -94.3375 240° Southwest 374 430 11,900 -420 Descending Houston Center
01:12PM 30.1911 -94.3992 248° West 329 379 11,800 -780 Descending Houston Center
01:12PM 30.1844 -94.4394 259° West 338 389 11,100 -1,620 Descending Houston Center
01:13PM 30.1711 -94.5156 259° West 318 366 10,000 -1,080 Descending Houston Center
01:13PM 30.1689 -94.5369 263° West 322 371 10,000  Level Houston Center
01:14PM 30.1553 -94.6119 258° West 327 376 10,000  Level Houston Center
01:14PM 30.1528 -94.6406 264° West 326 375 10,000  Level Houston Center
01:15PM 30.1392 -94.7058 256° West 328 377 10,000  Level Houston Center
01:15PM 30.1314 -94.7628 261° West 326 375 10,000 -240 Level Houston Center
01:16PM 30.1203 -94.8147 256° West 301 346 9,800 -960 Descending Houston Center
01:16PM 30.1142 -94.8581 261° West 311 358 9,000 -1,800 Descending Houston Center
01:17PM 30.1058 -94.9058 259° West 291 335 8,000 -1,560 Descending Houston Center
01:17PM 30.1044 -94.9469 268° West 287 330 7,400 -1,560 Descending Houston Center
01:18PM 30.1053 -94.9906 271° West 286 329 6,600 -1,380 Descending Houston Center
01:18PM 30.1053 -95.0389 270° West 287 330 6,000 -600 Descending Houston Center
01:19PM 30.1039 -95.0872 268° West 285 328 6,000  Level Houston Center
01:20PM 30.1064 -95.1294 274° West 285 328 6,000  Level Houston Center
01:20PM 30.1061 -95.1789 270° West 285 328 6,000  Level Houston Center
01:21PM 30.1081 -95.2386 272° West 285 328 6,000  Level Houston Center
01:21PM 30.1061 -95.2706 266° West 283 326 6,000  Level Houston Center
01:22PM 30.1067 -95.3292 271° West 285 328 6,000 -480 Level Houston Center
01:22PM 30.1053 -95.3744 268° West 280 322 5,500 -1,380 Descending Houston Center
01:23PM 30.1072 -95.4197 273° West 285 328 4,600 -1,800 Descending Houston Center
01:23PM 30.1069 -95.4611 270° West 272 313 3,700 -1,560 Descending Houston Center
01:24PM 30.1075 -95.5042 271° West 273 314 3,000 -720 Descending Houston Center
01:24PM 30.1017 -95.5439 260° West 259 298 3,000  Level Houston Center
01:25PM 30.0914 -95.5792 251° West 253 291 3,000  Level Houston Center
01:25PM 30.0756 -95.6025 232° Southwest 219 252 3,000  Level Houston Center
01:26PM 30.0308 -95.6003 178° South 234 269 3,000  Level Houston Center
01:26PM 30.0136 -95.5931 160° South 216 249 3,000  Level Houston Center
01:27PM 29.9942 -95.5572 122° Southeast 207 238 3,000 -300 Level Houston Center
01:28PM 29.9933 -95.4975 91° East 192 221 2,500 -540 Descending Houston Center